createdAt,value
2019-04-30T00:01:32.441Z,9.20
2019-04-30T00:04:11.131Z,9.20
2019-04-30T00:06:42.431Z,9.20
2019-04-30T00:09:19.023Z,9.30
2019-04-30T00:11:50.691Z,9.30
2019-04-30T00:14:16.945Z,9.30
2019-04-30T00:16:48.063Z,9.40
2019-04-30T00:19:19.918Z,9.40
2019-04-30T00:21:57.048Z,9.40
2019-04-30T00:24:23.250Z,9.40
2019-04-30T00:26:55.137Z,9.40
2019-04-30T00:29:30.875Z,9.40
2019-04-30T00:32:04.123Z,9.40
2019-04-30T00:34:36.014Z,9.40
2019-04-30T00:37:07.357Z,9.50
2019-04-30T00:39:36.379Z,9.50
2019-04-30T00:42:05.242Z,9.50
2019-04-30T00:44:36.586Z,9.40
2019-04-30T00:47:08.300Z,9.30
2019-04-30T00:49:38.301Z,9.10
2019-04-30T00:52:09.345Z,9.10
2019-04-30T00:54:37.755Z,9.00
2019-04-30T00:57:07.636Z,8.90
2019-04-30T00:59:46.529Z,8.90
2019-04-30T01:02:27.915Z,8.90
2019-04-30T01:04:58.251Z,8.90
2019-04-30T01:07:28.002Z,8.90
2019-04-30T01:09:56.629Z,9.00
2019-04-30T01:12:31.029Z,9.00
2019-04-30T01:14:55.172Z,9.10
2019-04-30T01:17:23.584Z,9.10
2019-04-30T01:19:55.257Z,9.10
2019-04-30T01:22:28.208Z,9.20
2019-04-30T01:24:55.461Z,9.20
2019-04-30T01:27:24.708Z,9.20
2019-04-30T01:29:56.152Z,9.10
2019-04-30T01:32:26.236Z,9.10
2019-04-30T01:34:55.052Z,9.10
2019-04-30T01:37:29.643Z,9.10
2019-04-30T01:39:58.785Z,9.10
2019-04-30T01:42:30.096Z,9.10
2019-04-30T01:44:58.968Z,9.20
2019-04-30T01:47:32.204Z,9.10
2019-04-30T01:50:05.129Z,9.10
2019-04-30T01:52:51.190Z,9.10
2019-04-30T01:55:22.790Z,9.10
2019-04-30T01:58:14.109Z,9.10
2019-04-30T02:00:59.389Z,9.20
2019-04-30T02:03:31.083Z,9.30
2019-04-30T02:06:02.969Z,9.40
2019-04-30T02:08:36.934Z,9.30
2019-04-30T02:11:05.346Z,9.40
2019-04-30T02:13:34.571Z,9.40
2019-04-30T02:16:08.536Z,9.40
2019-04-30T02:18:39.706Z,9.30
2019-04-30T02:21:08.950Z,9.40
2019-04-30T02:23:41.340Z,9.30
2019-04-30T02:26:15.574Z,9.30
2019-04-30T02:28:45.016Z,9.20
2019-04-30T02:31:15.015Z,9.20
2019-04-30T02:33:45.366Z,9.20
2019-04-30T02:36:19.692Z,9.10
2019-04-30T02:38:51.535Z,9.10
2019-04-30T02:41:22.255Z,9.10
2019-04-30T02:43:53.001Z,9.10
2019-04-30T02:46:25.783Z,9.10
2019-04-30T02:48:59.825Z,9.00
2019-04-30T02:51:30.525Z,9.00
2019-04-30T02:54:09.879Z,8.90
2019-04-30T02:56:43.289Z,8.80
2019-04-30T02:59:11.699Z,8.80
2019-04-30T03:01:40.522Z,8.70
2019-04-30T03:04:10.097Z,8.60
2019-04-30T03:06:40.693Z,8.50
2019-04-30T03:09:12.469Z,8.40
2019-04-30T03:11:41.164Z,8.30
2019-04-30T03:14:10.702Z,8.10
2019-04-30T03:19:40.583Z,8.10
2019-04-30T03:22:13.317Z,8.00
2019-04-30T03:24:42.897Z,8.00
2019-04-30T03:27:11.867Z,8.10
2019-04-30T03:29:43.248Z,8.10
2019-04-30T03:32:16.332Z,8.20
2019-04-30T03:34:44.734Z,8.30
2019-04-30T03:37:13.374Z,8.20
2019-04-30T03:39:45.177Z,8.20
2019-04-30T03:42:19.873Z,8.10
2019-04-30T03:44:52.364Z,8.00
2019-04-30T03:47:24.825Z,7.90
2019-04-30T03:50:00.011Z,7.80
2019-04-30T03:52:29.698Z,7.70
2019-04-30T03:55:02.518Z,7.50
2019-04-30T03:57:31.259Z,7.40
2019-04-30T03:59:59.770Z,7.20
2019-04-30T04:02:42.020Z,7.20
2019-04-30T04:05:12.177Z,7.30
2019-04-30T04:07:45.036Z,7.40
2019-04-30T04:10:19.501Z,7.50
2019-04-30T04:12:51.315Z,7.60
2019-04-30T04:15:21.365Z,7.70
2019-04-30T04:17:50.415Z,7.80
2019-04-30T04:20:20.318Z,7.80
2019-04-30T04:22:49.803Z,7.80
2019-04-30T04:25:20.478Z,7.90
2019-04-30T04:27:52.048Z,8.00
2019-04-30T04:30:20.703Z,8.20
2019-04-30T04:32:52.801Z,8.20
2019-04-30T04:35:30.263Z,8.30
2019-04-30T04:38:01.941Z,8.40
2019-04-30T04:40:30.531Z,8.40
2019-04-30T04:43:00.277Z,8.40
2019-04-30T04:45:30.490Z,8.40
2019-04-30T04:48:02.052Z,8.50
2019-04-30T04:50:30.576Z,8.50
2019-04-30T04:53:02.117Z,8.60
2019-04-30T04:55:32.077Z,8.70
2019-04-30T04:58:00.715Z,8.80
2019-04-30T05:00:29.493Z,8.90
2019-04-30T05:03:06.324Z,9.00
2019-04-30T05:05:34.760Z,9.00
2019-04-30T05:08:03.142Z,9.10
2019-04-30T05:10:33.598Z,9.10
2019-04-30T05:13:04.624Z,9.20
2019-04-30T05:15:33.032Z,9.20
2019-04-30T05:18:04.175Z,9.30
2019-04-30T05:20:35.338Z,9.40
2019-04-30T05:23:03.739Z,9.40
2019-04-30T05:25:40.561Z,9.50
2019-04-30T05:28:09.000Z,9.60
2019-04-30T05:30:42.070Z,9.70
2019-04-30T05:33:10.723Z,9.70
2019-04-30T05:35:51.086Z,9.80
2019-04-30T05:38:20.486Z,9.90
2019-04-30T05:40:49.539Z,9.90
2019-04-30T05:43:19.329Z,10.00
2019-04-30T05:45:49.228Z,10.20
2019-04-30T05:48:18.663Z,10.30
2019-04-30T05:50:51.425Z,10.30
2019-04-30T05:53:23.707Z,10.30
2019-04-30T05:55:54.734Z,10.50
2019-04-30T05:58:24.767Z,10.60
2019-04-30T06:00:53.258Z,10.80
2019-04-30T06:03:28.069Z,10.80
2019-04-30T06:05:52.286Z,11.00
2019-04-30T06:08:22.335Z,11.10
2019-04-30T06:10:53.454Z,11.10
2019-04-30T06:13:32.758Z,11.30
2019-04-30T06:16:02.894Z,11.60
2019-04-30T06:18:31.390Z,13.00
2019-04-30T06:20:59.854Z,14.30
2019-04-30T06:23:30.920Z,15.40
2019-04-30T06:26:09.031Z,16.10
2019-04-30T06:28:32.124Z,17.00
2019-04-30T06:31:02.638Z,17.70
2019-04-30T06:33:31.374Z,18.40
2019-04-30T06:36:03.408Z,19.00
2019-04-30T06:38:32.205Z,19.10
2019-04-30T06:41:02.311Z,18.70
2019-04-30T06:43:32.508Z,18.30
2019-04-30T06:46:01.163Z,17.70
2019-04-30T06:48:30.506Z,17.70
2019-04-30T06:50:59.307Z,17.00
2019-04-30T06:53:30.308Z,16.50
2019-04-30T06:55:59.126Z,16.90
2019-04-30T06:58:29.167Z,17.70
2019-04-30T07:00:59.442Z,18.10
2019-04-30T07:03:29.038Z,18.70
2019-04-30T07:05:58.709Z,19.40
2019-04-30T07:08:39.568Z,19.50
2019-04-30T07:11:24.594Z,20.20
2019-04-30T07:13:59.999Z,20.90
2019-04-30T07:16:29.859Z,20.90
2019-04-30T07:18:59.707Z,20.80
2019-04-30T07:21:31.569Z,20.70
2019-04-30T07:23:59.726Z,20.40
2019-04-30T07:26:28.997Z,19.90
2019-04-30T07:28:59.798Z,19.50
2019-04-30T07:31:29.669Z,19.30
2019-04-30T07:34:02.971Z,19.50
2019-04-30T07:36:45.733Z,20.10
2019-04-30T07:39:02.230Z,19.70
2019-04-30T07:41:31.182Z,19.80
2019-04-30T07:44:01.386Z,20.30
2019-04-30T07:46:35.064Z,20.60
2019-04-30T07:49:01.623Z,20.90
2019-04-30T07:51:32.182Z,20.50
2019-04-30T07:54:00.265Z,20.40
2019-04-30T07:56:37.728Z,20.40
2019-04-30T07:59:03.096Z,20.40
2019-04-30T08:01:32.177Z,20.30
2019-04-30T08:04:02.194Z,20.30
2019-04-30T08:06:31.524Z,19.70
2019-04-30T08:09:01.397Z,19.80
2019-04-30T08:11:34.371Z,19.90
2019-04-30T08:14:00.922Z,19.90
2019-04-30T08:16:30.495Z,20.10
2019-04-30T08:19:00.087Z,20.00
2019-04-30T08:21:28.974Z,19.60
2019-04-30T08:24:01.109Z,18.50
2019-04-30T08:26:33.164Z,18.50
2019-04-30T08:29:01.566Z,18.50
2019-04-30T08:31:35.907Z,18.10
2019-04-30T08:34:10.699Z,18.40
2019-04-30T08:36:38.656Z,19.00
2019-04-30T08:39:09.669Z,19.70
2019-04-30T08:41:41.654Z,19.90
2019-04-30T08:44:10.218Z,19.50
2019-04-30T08:46:38.844Z,19.60
2019-04-30T08:49:09.289Z,19.40
2019-04-30T08:51:40.732Z,19.20
2019-04-30T08:54:12.966Z,19.20
2019-04-30T08:56:44.328Z,19.90
2019-04-30T08:59:12.953Z,20.00
2019-04-30T09:01:41.624Z,20.00
2019-04-30T09:04:11.754Z,19.90
2019-04-30T09:06:45.956Z,19.60
2019-04-30T09:09:16.297Z,19.50
2019-04-30T09:11:52.998Z,19.60
2019-04-30T09:14:29.784Z,19.10
2019-04-30T09:16:59.570Z,18.80
2019-04-30T09:19:29.788Z,18.80
2019-04-30T09:21:59.101Z,18.80
2019-04-30T09:24:30.676Z,19.10
2019-04-30T09:26:59.078Z,19.00
2019-04-30T09:29:31.154Z,18.60
2019-04-30T09:32:02.717Z,18.40
2019-04-30T09:34:31.201Z,18.70
2019-04-30T09:36:59.755Z,18.90
2019-04-30T09:39:30.110Z,19.30
2019-04-30T09:42:01.525Z,19.40
2019-04-30T09:44:30.861Z,19.60
2019-04-30T09:47:00.088Z,19.80
2019-04-30T09:49:31.795Z,19.90
2019-04-30T09:52:01.991Z,20.00
2019-04-30T09:54:33.338Z,20.60
2019-04-30T09:57:09.119Z,20.60
2019-04-30T09:59:38.779Z,20.80
2019-04-30T10:02:09.264Z,20.90
2019-04-30T10:04:41.632Z,21.10
2019-04-30T10:07:19.495Z,20.20
2019-04-30T10:09:50.666Z,19.60
2019-04-30T10:12:19.514Z,19.70
2019-04-30T10:14:52.553Z,19.80
2019-04-30T10:17:28.177Z,20.20
2019-04-30T10:19:56.577Z,19.80
2019-04-30T10:22:30.778Z,20.30
2019-04-30T10:25:00.829Z,20.40
2019-04-30T10:27:29.512Z,20.40
2019-04-30T10:29:59.683Z,20.60
2019-04-30T10:32:30.968Z,20.70
2019-04-30T10:34:59.449Z,20.60
2019-04-30T10:37:28.749Z,20.60
2019-04-30T10:40:01.178Z,20.60
2019-04-30T10:42:30.755Z,20.40
2019-04-30T10:45:04.957Z,20.50
2019-04-30T10:47:33.499Z,20.40
2019-04-30T10:50:10.401Z,20.40
2019-04-30T10:52:39.293Z,20.30
2019-04-30T10:55:09.550Z,20.40
2019-04-30T10:57:39.661Z,20.10
2019-04-30T11:00:19.444Z,20.20
2019-04-30T11:02:49.550Z,20.60
2019-04-30T11:05:18.840Z,20.80
2019-04-30T11:07:54.194Z,20.70
2019-04-30T11:10:25.638Z,20.40
2019-04-30T11:12:55.201Z,20.60
2019-04-30T11:15:25.228Z,20.70
2019-04-30T11:17:56.445Z,21.00
2019-04-30T11:20:30.341Z,21.30
2019-04-30T11:23:00.658Z,21.60
2019-04-30T11:25:34.631Z,21.80
2019-04-30T11:28:07.683Z,21.00
2019-04-30T11:30:39.209Z,21.10
2019-04-30T11:33:08.743Z,20.80
2019-04-30T11:35:39.452Z,21.00
2019-04-30T11:38:08.162Z,20.90
2019-04-30T11:40:39.818Z,20.80
2019-04-30T11:43:07.427Z,20.70
2019-04-30T11:45:55.528Z,21.00
2019-04-30T11:48:24.031Z,21.20
2019-04-30T11:50:52.472Z,21.30
2019-04-30T11:53:27.231Z,21.60
2019-04-30T11:55:51.214Z,21.30
2019-04-30T11:58:21.689Z,21.40
2019-04-30T12:00:56.242Z,21.40
2019-04-30T12:03:24.637Z,21.00
2019-04-30T12:05:53.079Z,20.60
2019-04-30T12:08:23.165Z,20.40
2019-04-30T12:10:57.895Z,20.80
2019-04-30T12:13:28.252Z,20.90
2019-04-30T12:16:02.417Z,20.90
2019-04-30T12:18:34.061Z,20.90
2019-04-30T12:21:04.197Z,20.80
2019-04-30T12:23:35.880Z,21.00
2019-04-30T12:26:08.954Z,21.20
2019-04-30T12:28:42.434Z,21.40
2019-04-30T12:31:10.945Z,21.10
2019-04-30T12:33:39.391Z,21.40
2019-04-30T12:36:09.051Z,21.80
2019-04-30T12:38:38.427Z,21.50
2019-04-30T12:41:08.558Z,21.40
2019-04-30T12:43:37.006Z,21.20
2019-04-30T12:46:05.714Z,21.10
2019-04-30T12:48:51.622Z,21.10
2019-04-30T12:51:27.504Z,21.20
2019-04-30T12:54:03.028Z,21.30
2019-04-30T12:56:35.589Z,21.10
2019-04-30T12:59:04.748Z,21.30
2019-04-30T13:01:34.204Z,21.30
2019-04-30T13:04:03.415Z,21.20
2019-04-30T13:06:32.507Z,21.30
2019-04-30T13:09:01.981Z,21.30
2019-04-30T13:11:31.551Z,21.50
2019-04-30T13:14:05.198Z,21.60
2019-04-30T13:16:39.265Z,21.60
2019-04-30T13:19:09.277Z,21.50
2019-04-30T13:21:40.692Z,21.20
2019-04-30T13:24:12.259Z,21.50
2019-04-30T13:26:44.717Z,21.70
2019-04-30T13:29:14.799Z,21.80
2019-04-30T13:31:43.298Z,21.80
2019-04-30T13:34:29.966Z,21.70
2019-04-30T13:36:59.417Z,21.70
2019-04-30T13:39:30.125Z,21.80
2019-04-30T13:42:14.830Z,22.10
2019-04-30T13:44:35.372Z,22.20
2019-04-30T13:47:05.683Z,22.70
2019-04-30T13:49:34.107Z,22.80
2019-04-30T13:52:03.147Z,22.70
2019-04-30T13:54:31.801Z,23.00
2019-04-30T13:57:00.222Z,23.10
2019-04-30T13:59:28.626Z,23.20
2019-04-30T14:01:58.808Z,23.60
2019-04-30T14:04:41.973Z,23.80
2019-04-30T14:07:12.031Z,23.70
2019-04-30T14:09:41.461Z,23.40
2019-04-30T14:12:12.483Z,23.60
2019-04-30T14:14:40.937Z,23.90
2019-04-30T14:17:09.439Z,24.90
2019-04-30T14:19:39.381Z,24.90
2019-04-30T14:22:09.544Z,25.10
2019-04-30T14:24:37.994Z,24.90
2019-04-30T14:27:08.998Z,25.30
2019-04-30T14:29:39.576Z,25.50
2019-04-30T14:32:08.738Z,26.20
2019-04-30T14:34:39.633Z,26.40
2019-04-30T14:37:14.318Z,26.40
2019-04-30T14:39:45.938Z,25.60
2019-04-30T14:42:17.920Z,25.80
2019-04-30T14:44:50.122Z,26.10
2019-04-30T14:47:30.852Z,25.70
2019-04-30T14:50:06.768Z,26.20
2019-04-30T14:52:40.219Z,26.70
2019-04-30T14:55:14.933Z,26.80
2019-04-30T14:58:01.236Z,26.10
2019-04-30T15:00:43.297Z,25.70
2019-04-30T15:03:16.639Z,25.60
2019-04-30T15:05:54.325Z,25.20
2019-04-30T15:08:24.284Z,25.60
2019-04-30T15:11:01.390Z,26.00
2019-04-30T15:13:33.485Z,25.60
2019-04-30T15:16:02.324Z,25.60
2019-04-30T15:18:30.793Z,25.10
2019-04-30T15:20:59.549Z,24.60
2019-04-30T15:23:39.685Z,24.60
2019-04-30T15:26:08.597Z,25.00
2019-04-30T15:28:41.468Z,25.40
2019-04-30T15:31:14.545Z,25.50
2019-04-30T15:34:02.296Z,25.80
2019-04-30T15:36:26.807Z,25.80
2019-04-30T15:38:56.893Z,26.00
2019-04-30T15:41:26.315Z,26.00
2019-04-30T15:43:54.876Z,26.00
2019-04-30T15:46:24.993Z,26.20
2019-04-30T15:48:53.500Z,26.70
2019-04-30T15:51:24.978Z,26.60
2019-04-30T15:53:53.764Z,26.60
2019-04-30T15:56:33.888Z,25.90
2019-04-30T15:59:12.129Z,25.90
2019-04-30T16:01:47.512Z,25.60
2019-04-30T16:04:20.332Z,25.30
2019-04-30T16:06:49.186Z,25.00
2019-04-30T16:09:32.939Z,24.20
2019-04-30T16:12:20.040Z,24.40
2019-04-30T16:14:48.479Z,24.40
2019-04-30T16:17:24.656Z,24.60
2019-04-30T16:19:53.131Z,24.90
2019-04-30T16:22:24.030Z,24.70
2019-04-30T16:24:54.639Z,24.60
2019-04-30T16:27:22.780Z,24.40
2019-04-30T16:29:52.036Z,23.90
2019-04-30T16:32:22.459Z,23.70
2019-04-30T16:34:52.239Z,23.40
2019-04-30T16:37:20.716Z,22.80
2019-04-30T16:39:50.848Z,22.40
2019-04-30T16:42:19.386Z,22.50
2019-04-30T16:44:47.808Z,22.90
2019-04-30T16:47:17.083Z,22.50
2019-04-30T16:49:46.426Z,22.10
2019-04-30T16:52:14.984Z,21.40
2019-04-30T16:54:43.376Z,20.90
2019-04-30T16:57:11.899Z,20.20
2019-04-30T16:59:43.541Z,19.70
2019-04-30T17:02:14.415Z,19.50
2019-04-30T17:04:50.392Z,19.20
2019-04-30T17:07:20.503Z,18.90
2019-04-30T17:09:58.959Z,18.70
2019-04-30T17:12:38.698Z,18.60
2019-04-30T17:15:24.437Z,18.40
2019-04-30T17:17:55.897Z,18.40
2019-04-30T17:20:24.660Z,18.30
2019-04-30T17:22:53.042Z,18.30
2019-04-30T17:25:21.646Z,18.40
2019-04-30T17:27:50.063Z,18.50
2019-04-30T17:30:21.167Z,18.40
2019-04-30T17:32:50.040Z,18.30
2019-04-30T17:35:22.252Z,18.10
2019-04-30T17:37:50.911Z,17.90
2019-04-30T17:40:20.378Z,17.80
2019-04-30T17:42:48.865Z,17.60
2019-04-30T17:45:19.680Z,17.40
2019-04-30T17:47:48.243Z,17.20
2019-04-30T17:50:22.357Z,17.00
2019-04-30T17:52:50.327Z,16.80
2019-04-30T17:55:24.073Z,16.70
2019-04-30T17:57:55.050Z,16.50
2019-04-30T18:00:23.275Z,16.40
2019-04-30T18:02:51.995Z,16.20
2019-04-30T18:05:20.689Z,16.10
2019-04-30T18:07:49.767Z,15.90
2019-04-30T18:10:21.297Z,15.70
2019-04-30T18:12:50.244Z,15.60
2019-04-30T18:15:23.152Z,15.40
2019-04-30T18:17:53.290Z,15.30
2019-04-30T18:20:23.552Z,15.10
2019-04-30T18:22:53.674Z,15.00
2019-04-30T18:25:35.877Z,14.80
2019-04-30T18:28:09.127Z,14.50
2019-04-30T18:30:39.524Z,14.40
2019-04-30T18:33:11.122Z,14.30
2019-04-30T18:35:39.544Z,14.20
2019-04-30T18:38:09.791Z,14.00
2019-04-30T18:40:39.743Z,13.80
2019-04-30T18:43:10.725Z,13.60
2019-04-30T18:45:39.697Z,13.40
2019-04-30T18:48:10.155Z,13.30
2019-04-30T18:50:41.011Z,13.20
2019-04-30T18:53:11.119Z,13.10
2019-04-30T18:55:39.865Z,13.00
2019-04-30T18:58:08.802Z,12.90
2019-04-30T19:00:39.727Z,12.80
2019-04-30T19:03:12.208Z,12.70
2019-04-30T19:05:49.190Z,12.70
2019-04-30T19:08:24.074Z,12.60
2019-04-30T19:11:10.835Z,12.50
2019-04-30T19:13:55.989Z,12.50
2019-04-30T19:16:28.919Z,12.40
2019-04-30T19:19:15.104Z,12.30
2019-04-30T19:21:43.773Z,12.30
2019-04-30T19:24:12.167Z,12.20
2019-04-30T19:26:40.711Z,12.10
2019-04-30T19:29:12.086Z,12.10
2019-04-30T19:31:40.579Z,12.10
2019-04-30T19:34:23.815Z,12.10
2019-04-30T19:36:52.400Z,12.00
2019-04-30T19:41:41.225Z,12.00
2019-04-30T19:44:09.653Z,11.80
2019-04-30T19:46:40.948Z,11.80
2019-04-30T19:49:09.863Z,11.70
2019-04-30T19:51:40.216Z,11.70
2019-04-30T19:54:12.257Z,11.60
2019-04-30T19:56:42.465Z,11.60
2019-04-30T19:59:10.961Z,11.60
2019-04-30T20:01:39.363Z,11.60
2019-04-30T20:04:09.703Z,11.60
2019-04-30T20:06:38.606Z,11.60
2019-04-30T20:09:08.956Z,11.50
2019-04-30T20:11:42.626Z,11.50
2019-04-30T20:14:10.548Z,11.50
2019-04-30T20:16:40.246Z,11.40
2019-04-30T20:19:09.301Z,11.40
2019-04-30T20:21:48.659Z,11.30
2019-04-30T20:24:13.730Z,11.20
2019-04-30T20:26:42.146Z,11.10
2019-04-30T20:29:19.370Z,11.10
2019-04-30T20:31:48.698Z,11.00
2019-04-30T20:34:19.173Z,11.10
2019-04-30T20:36:48.317Z,11.10
2019-04-30T20:39:18.606Z,11.10
2019-04-30T20:41:49.594Z,11.10
2019-04-30T20:44:19.012Z,11.20
2019-04-30T20:46:49.123Z,11.10
2019-04-30T20:49:19.203Z,11.10
2019-04-30T20:51:55.170Z,11.00
2019-04-30T20:54:22.514Z,10.90
2019-04-30T20:56:51.164Z,10.80
2019-04-30T20:59:20.194Z,10.80
2019-04-30T21:01:49.036Z,10.80
2019-04-30T21:04:20.640Z,10.80
2019-04-30T21:06:49.660Z,10.80
2019-04-30T21:09:20.729Z,10.70
2019-04-30T21:12:01.387Z,10.60
2019-04-30T21:14:30.189Z,10.50
2019-04-30T21:16:58.937Z,10.50
2019-04-30T21:19:30.218Z,10.40
2019-04-30T21:22:01.860Z,10.30
2019-04-30T21:24:32.126Z,10.30
2019-04-30T21:27:06.844Z,10.30
2019-04-30T21:29:35.337Z,10.20
2019-04-30T21:32:05.449Z,10.10
2019-04-30T21:34:47.669Z,10.00
2019-04-30T21:37:18.114Z,9.80
2019-04-30T21:39:49.986Z,9.70
2019-04-30T21:42:18.338Z,9.60
2019-04-30T21:44:47.035Z,9.60
2019-04-30T21:47:21.485Z,9.50
2019-04-30T21:49:53.523Z,9.50
2019-04-30T21:52:21.969Z,9.40
2019-04-30T21:54:53.891Z,9.40
2019-04-30T21:57:23.471Z,9.50
2019-04-30T21:59:51.915Z,9.50
2019-04-30T22:02:20.333Z,9.40
2019-04-30T22:04:50.297Z,9.40
2019-04-30T22:07:19.469Z,9.40
2019-04-30T22:09:48.645Z,9.30
2019-04-30T22:12:19.916Z,9.20
2019-04-30T22:14:51.349Z,9.10
2019-04-30T22:17:19.992Z,9.00
2019-04-30T22:19:49.099Z,8.90
2019-04-30T22:22:21.637Z,8.70
2019-04-30T22:24:50.059Z,8.60
2019-04-30T22:27:18.461Z,8.50
2019-04-30T22:29:51.040Z,8.40
2019-04-30T22:32:19.587Z,8.30
2019-04-30T22:34:49.629Z,8.20
2019-04-30T22:37:19.533Z,8.10
2019-04-30T22:39:51.337Z,8.00
2019-04-30T22:42:29.834Z,7.80
2019-04-30T22:45:00.040Z,7.50
2019-04-30T22:47:31.470Z,7.30
2019-04-30T22:50:00.103Z,7.10
2019-04-30T22:52:28.643Z,6.90
2019-04-30T22:54:57.047Z,6.80
2019-04-30T22:57:25.529Z,6.80
2019-04-30T22:59:59.867Z,6.70
2019-04-30T23:02:35.480Z,6.60
2019-04-30T23:05:08.477Z,6.40
2019-04-30T23:07:37.231Z,6.40
2019-04-30T23:10:08.022Z,6.30
2019-04-30T23:12:40.144Z,6.30
2019-04-30T23:15:12.565Z,6.20
2019-04-30T23:17:41.068Z,6.10
2019-04-30T23:20:10.171Z,6.10
2019-04-30T23:22:38.633Z,6.10
2019-04-30T23:25:12.938Z,6.00
2019-04-30T23:27:41.338Z,5.90
2019-04-30T23:30:11.747Z,5.80
2019-04-30T23:32:40.166Z,5.70
2019-04-30T23:35:09.584Z,5.60
2019-04-30T23:37:38.315Z,5.60
2019-04-30T23:40:30.689Z,5.70
2019-04-30T23:43:00.692Z,5.60
2019-04-30T23:45:30.847Z,5.60
2019-04-30T23:48:02.294Z,5.50
2019-04-30T23:50:30.700Z,5.40
2019-04-30T23:52:59.482Z,5.30
2019-04-30T23:55:29.663Z,5.30
2019-04-30T23:58:00.866Z,5.20
